createdAt,value
2024-03-04T00:00:30.962Z,8.71
2024-03-04T00:02:59.066Z,8.76
2024-03-04T00:05:26.685Z,8.74
2024-03-04T00:07:54.238Z,8.64
2024-03-04T00:10:22.605Z,8.57
2024-03-04T00:12:50.145Z,8.63
2024-03-04T00:15:18.045Z,8.61
2024-03-04T00:17:45.741Z,8.70
2024-03-04T00:20:14.723Z,8.64
2024-03-04T00:22:43.882Z,8.57
2024-03-04T00:25:15.977Z,8.62
2024-03-04T00:27:49.634Z,8.66
2024-03-04T00:30:17.382Z,8.62
2024-03-04T00:32:45.903Z,8.74
2024-03-04T00:35:15.108Z,8.72
2024-03-04T00:37:43.689Z,8.79
2024-03-04T00:40:11.646Z,8.87
2024-03-04T00:42:39.939Z,8.91
2024-03-04T00:45:08.321Z,8.93
2024-03-04T00:47:36.221Z,8.93
2024-03-04T00:50:04.117Z,8.98
2024-03-04T00:52:32.827Z,8.88
2024-03-04T00:55:00.789Z,8.97
2024-03-04T00:57:28.391Z,8.98
2024-03-04T00:59:58.301Z,8.95
2024-03-04T01:02:25.827Z,9.04
2024-03-04T01:04:53.708Z,9.00
2024-03-04T01:07:21.053Z,9.05
2024-03-04T01:09:48.896Z,8.86
2024-03-04T01:12:16.882Z,8.72
2024-03-04T01:14:44.451Z,8.50
2024-03-04T01:17:18.319Z,8.22
2024-03-04T01:19:48.764Z,8.35
2024-03-04T01:22:18.044Z,8.10
2024-03-04T01:24:46.629Z,8.15
2024-03-04T01:27:14.723Z,8.25
2024-03-04T01:29:42.967Z,8.22
2024-03-04T01:32:11.443Z,8.19
2024-03-04T01:34:40.722Z,8.12
2024-03-04T01:37:09.269Z,8.07
2024-03-04T01:39:37.101Z,8.05
2024-03-04T01:42:04.798Z,7.97
2024-03-04T01:44:40.030Z,7.99
2024-03-04T01:47:12.173Z,7.86
2024-03-04T01:49:40.152Z,8.02
2024-03-04T01:52:08.378Z,7.98
2024-03-04T01:54:39.726Z,8.00
2024-03-04T01:57:08.147Z,8.04
2024-03-04T01:59:37.841Z,8.04
2024-03-04T02:02:09.994Z,8.12
2024-03-04T02:04:39.851Z,8.18
2024-03-04T02:07:08.280Z,8.24
2024-03-04T02:09:38.498Z,8.20
2024-03-04T02:12:06.807Z,8.24
2024-03-04T02:14:34.299Z,8.25
2024-03-04T02:17:02.076Z,8.27
2024-03-04T02:19:29.595Z,8.07
2024-03-04T02:22:02.761Z,8.09
2024-03-04T02:24:31.524Z,8.13
2024-03-04T02:26:59.075Z,8.06
2024-03-04T02:29:26.596Z,8.10
2024-03-04T02:31:54.245Z,8.20
2024-03-04T02:34:22.013Z,8.04
2024-03-04T02:36:49.847Z,8.10
2024-03-04T02:39:19.411Z,8.22
2024-03-04T02:41:46.985Z,8.33
2024-03-04T02:44:15.079Z,8.39
2024-03-04T02:46:42.779Z,8.43
2024-03-04T02:49:11.478Z,8.48
2024-03-04T02:51:38.832Z,8.52
2024-03-04T02:54:06.222Z,8.64
2024-03-04T02:56:34.111Z,8.60
2024-03-04T02:59:01.603Z,8.62
2024-03-04T03:01:29.108Z,8.73
2024-03-04T03:03:57.019Z,8.77
2024-03-04T03:06:24.713Z,8.79
2024-03-04T03:08:52.595Z,8.81
2024-03-04T03:11:20.928Z,8.85
2024-03-04T03:13:48.547Z,8.86
2024-03-04T03:16:20.732Z,8.89
2024-03-04T03:18:49.938Z,8.90
2024-03-04T03:21:17.289Z,8.92
2024-03-04T03:23:50.145Z,8.91
2024-03-04T03:26:17.745Z,8.95
2024-03-04T03:28:45.731Z,8.99
2024-03-04T03:31:13.346Z,8.99
2024-03-04T03:33:41.095Z,8.99
2024-03-04T03:36:09.090Z,9.02
2024-03-04T03:38:36.435Z,9.00
2024-03-04T03:41:05.388Z,9.06
2024-03-04T03:43:33.043Z,9.04
2024-03-04T03:46:00.680Z,9.12
2024-03-04T03:48:28.226Z,9.09
2024-03-04T03:50:56.443Z,9.13
2024-03-04T03:53:24.516Z,9.13
2024-03-04T03:55:53.035Z,9.16
2024-03-04T03:58:20.845Z,9.13
2024-03-04T04:00:48.387Z,9.14
2024-03-04T04:03:16.152Z,9.10
2024-03-04T04:05:43.522Z,9.11
2024-03-04T04:08:10.870Z,9.11
2024-03-04T04:10:38.362Z,9.12
2024-03-04T04:13:06.353Z,9.11
2024-03-04T04:15:34.219Z,9.14
2024-03-04T04:18:01.529Z,9.14
2024-03-04T04:20:29.190Z,9.16
2024-03-04T04:22:56.779Z,9.17
2024-03-04T04:25:24.201Z,9.22
2024-03-04T04:27:51.569Z,9.23
2024-03-04T04:30:18.927Z,9.23
2024-03-04T04:32:46.700Z,9.25
2024-03-04T04:35:14.368Z,9.28
2024-03-04T04:37:44.799Z,9.32
2024-03-04T04:40:12.763Z,9.29
2024-03-04T04:42:41.026Z,9.27
2024-03-04T04:45:08.794Z,9.32
2024-03-04T04:47:36.174Z,9.32
2024-03-04T04:50:04.755Z,9.33
2024-03-04T04:52:32.459Z,9.34
2024-03-04T04:55:00.058Z,9.37
2024-03-04T04:57:27.891Z,9.36
2024-03-04T04:59:55.371Z,9.36
2024-03-04T05:02:22.752Z,9.33
2024-03-04T05:04:57.103Z,9.33
2024-03-04T05:07:27.150Z,9.34
2024-03-04T05:09:55.531Z,9.23
2024-03-04T05:12:23.603Z,9.33
2024-03-04T05:14:51.285Z,9.32
2024-03-04T05:17:19.481Z,9.32
2024-03-04T05:19:47.511Z,9.29
2024-03-04T05:22:15.239Z,9.27
2024-03-04T05:24:42.832Z,9.24
2024-03-04T05:27:10.148Z,9.22
2024-03-04T05:29:37.771Z,9.16
2024-03-04T05:32:06.105Z,9.15
2024-03-04T05:34:34.103Z,9.11
2024-03-04T05:37:01.574Z,9.14
2024-03-04T05:39:33.234Z,9.12
2024-03-04T05:42:01.241Z,9.13
2024-03-04T05:44:28.704Z,9.10
2024-03-04T05:46:55.956Z,9.17
2024-03-04T05:49:23.412Z,9.19
2024-03-04T05:51:53.548Z,9.11
2024-03-04T05:54:20.671Z,9.14
2024-03-04T05:56:48.167Z,9.04
2024-03-04T05:59:16.022Z,9.13
2024-03-04T06:01:44.246Z,9.06
2024-03-04T06:04:12.127Z,8.99
2024-03-04T06:06:39.798Z,8.97
2024-03-04T06:09:09.771Z,8.80
2024-03-04T06:11:37.540Z,8.89
2024-03-04T06:14:05.077Z,8.92
2024-03-04T06:16:32.782Z,8.93
2024-03-04T06:19:00.380Z,8.95
2024-03-04T06:21:28.051Z,9.01
2024-03-04T06:23:55.396Z,8.98
2024-03-04T06:26:22.966Z,9.03
2024-03-04T06:28:50.272Z,9.05
2024-03-04T06:31:17.833Z,9.08
2024-03-04T06:33:52.523Z,9.04
2024-03-04T06:36:22.213Z,9.07
2024-03-04T06:38:51.681Z,9.02
2024-03-04T06:41:19.165Z,9.08
2024-03-04T06:43:46.823Z,9.06
2024-03-04T06:46:14.318Z,9.11
2024-03-04T06:48:42.144Z,9.12
2024-03-04T06:51:09.718Z,9.07
2024-03-04T06:53:37.103Z,9.09
2024-03-04T06:56:13.350Z,9.09
2024-03-04T06:58:40.683Z,9.11
2024-03-04T07:01:08.191Z,9.12
2024-03-04T07:03:35.539Z,9.06
2024-03-04T07:06:03.023Z,9.11
2024-03-04T07:08:33.521Z,9.09
2024-03-04T07:11:01.087Z,9.17
2024-03-04T07:13:28.534Z,9.27
2024-03-04T07:15:56.206Z,9.31
2024-03-04T07:18:23.835Z,9.19
2024-03-04T07:20:51.150Z,9.22
2024-03-04T07:23:18.487Z,9.23
2024-03-04T07:25:45.942Z,9.14
2024-03-04T07:28:14.560Z,9.26
2024-03-04T07:30:42.118Z,9.32
2024-03-04T07:33:11.256Z,9.43
2024-03-04T07:35:42.630Z,9.53
2024-03-04T07:38:11.876Z,9.56
2024-03-04T07:40:39.098Z,9.63
2024-03-04T07:43:06.458Z,9.62
2024-03-04T07:45:33.924Z,9.69
2024-03-04T07:48:01.655Z,9.80
2024-03-04T07:50:28.842Z,9.93
2024-03-04T07:52:56.073Z,9.95
2024-03-04T07:55:24.315Z,10.02
2024-03-04T07:57:51.822Z,10.09
2024-03-04T08:00:19.598Z,10.06
2024-03-04T08:02:46.912Z,10.09
2024-03-04T08:05:14.420Z,9.93
2024-03-04T08:07:42.264Z,10.08
2024-03-04T08:10:10.538Z,10.27
2024-03-04T08:12:38.327Z,10.47
2024-03-04T08:15:06.976Z,10.55
2024-03-04T08:17:34.864Z,10.63
2024-03-04T08:20:11.658Z,10.75
2024-03-04T08:22:45.071Z,10.77
2024-03-04T08:25:12.571Z,10.88
2024-03-04T08:27:40.126Z,10.99
2024-03-04T08:30:08.410Z,11.09
2024-03-04T08:32:35.764Z,11.21
2024-03-04T08:35:02.957Z,11.35
2024-03-04T08:37:30.740Z,11.46
2024-03-04T08:40:00.794Z,11.49
2024-03-04T08:42:28.213Z,11.62
2024-03-04T08:44:55.705Z,11.76
2024-03-04T08:47:23.938Z,11.65
2024-03-04T08:49:51.276Z,11.94
2024-03-04T08:52:18.462Z,12.02
2024-03-04T08:54:45.763Z,12.02
2024-03-04T08:57:13.543Z,12.04
2024-03-04T08:59:42.528Z,11.91
2024-03-04T09:02:12.227Z,11.91
2024-03-04T09:04:39.831Z,11.80
2024-03-04T09:07:08.585Z,11.99
2024-03-04T09:09:35.859Z,12.16
2024-03-04T09:12:05.326Z,12.34
2024-03-04T09:14:32.761Z,12.40
2024-03-04T09:17:01.640Z,12.57
2024-03-04T09:19:29.318Z,12.56
2024-03-04T09:21:57.243Z,12.74
2024-03-04T09:24:24.618Z,12.80
2024-03-04T09:26:52.083Z,12.86
2024-03-04T09:29:19.684Z,12.99
2024-03-04T09:31:46.990Z,13.11
2024-03-04T09:34:14.502Z,13.20
2024-03-04T09:36:41.760Z,13.32
2024-03-04T09:39:12.881Z,13.30
2024-03-04T09:41:42.119Z,13.23
2024-03-04T09:44:09.601Z,13.35
2024-03-04T09:46:41.657Z,13.45
2024-03-04T09:49:11.143Z,13.45
2024-03-04T09:51:39.899Z,13.06
2024-03-04T09:54:07.993Z,13.19
2024-03-04T09:56:35.624Z,13.29
2024-03-04T09:59:04.657Z,13.33
2024-03-04T10:01:33.489Z,13.39
2024-03-04T10:04:01.408Z,13.32
2024-03-04T10:06:29.223Z,13.31
2024-03-04T10:08:56.534Z,13.35
2024-03-04T10:11:23.968Z,13.32
2024-03-04T10:13:51.730Z,13.46
2024-03-04T10:16:19.289Z,13.43
2024-03-04T10:19:05.052Z,13.69
2024-03-04T10:21:33.662Z,13.88
2024-03-04T10:24:09.013Z,13.98
2024-03-04T10:26:44.106Z,14.19
2024-03-04T10:29:14.331Z,14.32
2024-03-04T10:31:55.859Z,14.43
2024-03-04T10:34:23.374Z,14.36
2024-03-04T10:36:52.796Z,14.50
2024-03-04T10:39:20.384Z,14.52
2024-03-04T10:41:48.818Z,14.63
2024-03-04T10:44:27.076Z,14.73
2024-03-04T10:46:58.949Z,14.78
2024-03-04T10:49:30.290Z,14.88
2024-03-04T10:52:08.092Z,14.83
2024-03-04T10:54:42.814Z,15.03
2024-03-04T10:57:31.749Z,15.02
2024-03-04T11:00:04.140Z,15.13
2024-03-04T11:03:01.729Z,15.26
2024-03-04T11:05:33.392Z,15.31
2024-03-04T11:08:44.212Z,15.22
2024-03-04T11:11:18.799Z,15.31
2024-03-04T11:13:49.581Z,15.43
2024-03-04T11:16:42.838Z,15.45
2024-03-04T11:19:29.678Z,15.44
2024-03-04T11:21:58.024Z,15.29
2024-03-04T11:24:26.459Z,15.32
2024-03-04T11:26:55.669Z,15.35
2024-03-04T11:29:25.740Z,15.38
2024-03-04T11:31:55.749Z,15.37
2024-03-04T11:34:24.120Z,15.39
2024-03-04T11:36:52.412Z,15.39
2024-03-04T11:39:26.210Z,15.36
2024-03-04T11:41:54.676Z,15.45
2024-03-04T11:44:30.048Z,15.46
2024-03-04T11:46:58.211Z,15.41
2024-03-04T11:49:31.288Z,15.45
2024-03-04T11:51:58.683Z,15.47
2024-03-04T11:54:36.160Z,15.45
2024-03-04T11:57:08.484Z,15.51
2024-03-04T11:59:37.140Z,15.46
2024-03-04T12:02:11.975Z,15.52
2024-03-04T12:04:42.259Z,15.58
2024-03-04T12:07:10.399Z,15.57
2024-03-04T12:09:50.847Z,15.55
2024-03-04T12:12:25.355Z,15.73
2024-03-04T12:14:53.605Z,15.75
2024-03-04T12:17:21.053Z,15.74
2024-03-04T12:19:59.183Z,15.71
2024-03-04T12:22:33.336Z,15.77
2024-03-04T12:25:06.913Z,15.74
2024-03-04T12:27:36.436Z,15.75
2024-03-04T12:30:21.069Z,15.75
2024-03-04T12:32:50.590Z,15.77
2024-03-04T12:35:27.779Z,15.44
2024-03-04T12:37:56.460Z,15.41
2024-03-04T12:40:26.298Z,15.44
2024-03-04T12:43:04.176Z,15.44
2024-03-04T12:45:33.786Z,15.48
2024-03-04T12:48:01.736Z,15.55
2024-03-04T12:50:31.538Z,15.50
2024-03-04T12:53:00.054Z,15.55
2024-03-04T12:55:28.982Z,15.51
2024-03-04T12:58:00.033Z,15.48
2024-03-04T13:00:29.042Z,15.41
2024-03-04T13:02:56.352Z,15.52
2024-03-04T13:05:24.107Z,15.64
2024-03-04T13:07:51.539Z,15.79
2024-03-04T13:10:18.966Z,15.82
2024-03-04T13:12:49.690Z,15.90
2024-03-04T13:15:17.114Z,15.87
2024-03-04T13:17:44.817Z,15.82
2024-03-04T13:20:16.694Z,15.75
2024-03-04T13:22:49.635Z,15.74
2024-03-04T13:25:18.295Z,15.74
2024-03-04T13:27:51.904Z,15.68
2024-03-04T13:30:20.025Z,15.76
2024-03-04T13:32:47.588Z,15.59
2024-03-04T13:35:15.526Z,15.59
2024-03-04T13:37:43.044Z,15.63
2024-03-04T13:40:12.319Z,15.59
2024-03-04T13:42:39.835Z,15.43
2024-03-04T13:45:08.690Z,15.46
2024-03-04T13:47:36.990Z,15.48
2024-03-04T13:50:04.887Z,15.48
2024-03-04T13:52:32.282Z,15.47
2024-03-04T13:55:01.287Z,15.37
2024-03-04T13:57:28.908Z,15.40
2024-03-04T13:59:56.266Z,15.51
2024-03-04T14:02:23.781Z,15.49
2024-03-04T14:04:51.196Z,15.40
2024-03-04T14:07:18.525Z,15.10
2024-03-04T14:09:46.452Z,15.07
2024-03-04T14:12:13.902Z,15.08
2024-03-04T14:14:41.402Z,15.18
2024-03-04T14:17:08.905Z,15.09
2024-03-04T14:19:36.181Z,15.06
2024-03-04T14:22:03.931Z,14.95
2024-03-04T14:24:31.676Z,14.90
2024-03-04T14:27:05.048Z,14.77
2024-03-04T14:29:33.027Z,14.76
2024-03-04T14:32:00.389Z,14.47
2024-03-04T14:34:30.516Z,14.52
2024-03-04T14:36:58.722Z,14.55
2024-03-04T14:39:26.077Z,14.37
2024-03-04T14:41:54.115Z,14.30
2024-03-04T14:44:21.363Z,14.23
2024-03-04T14:46:48.834Z,14.36
2024-03-04T14:49:16.266Z,14.29
2024-03-04T14:51:43.668Z,14.15
2024-03-04T14:54:11.938Z,14.00
2024-03-04T14:56:39.323Z,14.08
2024-03-04T14:59:06.484Z,14.09
2024-03-04T15:01:34.700Z,14.03
2024-03-04T15:04:02.108Z,13.93
2024-03-04T15:06:30.750Z,13.87
2024-03-04T15:08:58.286Z,13.82
2024-03-04T15:11:25.734Z,13.75
2024-03-04T15:13:55.607Z,13.64
2024-03-04T15:16:24.326Z,13.54
2024-03-04T15:18:51.734Z,13.43
2024-03-04T15:21:19.294Z,13.59
2024-03-04T15:23:47.033Z,13.58
2024-03-04T15:26:14.412Z,13.64
2024-03-04T15:28:42.815Z,13.71
2024-03-04T15:31:10.601Z,13.78
2024-03-04T15:33:38.584Z,13.70
2024-03-04T15:36:13.072Z,13.84
2024-03-04T15:38:45.082Z,13.70
2024-03-04T15:41:12.490Z,13.69
2024-03-04T15:43:39.932Z,13.68
2024-03-04T15:46:08.391Z,13.62
2024-03-04T15:48:36.797Z,13.63
2024-03-04T15:51:06.556Z,13.62
2024-03-04T15:53:35.388Z,13.66
2024-03-04T15:56:04.945Z,13.44
2024-03-04T15:58:32.590Z,13.54
2024-03-04T16:01:00.432Z,13.55
2024-03-04T16:03:30.609Z,13.62
2024-03-04T16:05:59.760Z,13.67
2024-03-04T16:08:27.348Z,13.70
2024-03-04T16:10:55.174Z,13.70
2024-03-04T16:13:22.766Z,13.72
2024-03-04T16:15:54.399Z,13.71
2024-03-04T16:18:23.572Z,13.67
2024-03-04T16:20:50.881Z,13.70
2024-03-04T16:23:18.313Z,13.69
2024-03-04T16:25:46.040Z,13.73
2024-03-04T16:28:13.723Z,13.71
2024-03-04T16:30:42.233Z,13.71
2024-03-04T16:33:10.757Z,13.62
2024-03-04T16:35:38.811Z,13.66
2024-03-04T16:38:06.619Z,13.74
2024-03-04T16:40:34.616Z,13.74
2024-03-04T16:43:04.289Z,13.71
2024-03-04T16:45:34.740Z,13.70
2024-03-04T16:48:03.698Z,13.68
2024-03-04T16:50:31.447Z,13.53
2024-03-04T16:52:59.008Z,13.49
2024-03-04T16:55:26.545Z,13.31
2024-03-04T16:57:54.035Z,13.54
2024-03-04T17:00:21.944Z,13.53
2024-03-04T17:02:49.623Z,13.58
2024-03-04T17:05:17.214Z,13.54
2024-03-04T17:07:49.446Z,13.51
2024-03-04T17:10:17.828Z,13.49
2024-03-04T17:12:47.454Z,13.49
2024-03-04T17:15:14.918Z,13.39
2024-03-04T17:17:42.432Z,13.41
2024-03-04T17:20:10.315Z,13.40
2024-03-04T17:22:38.458Z,13.33
2024-03-04T17:25:06.989Z,13.31
2024-03-04T17:27:35.582Z,13.30
2024-03-04T17:30:03.356Z,13.35
2024-03-04T17:32:31.067Z,13.32
2024-03-04T17:35:00.517Z,13.25
2024-03-04T17:37:28.355Z,13.22
2024-03-04T17:39:56.085Z,13.14
2024-03-04T17:42:25.512Z,13.19
2024-03-04T17:44:52.967Z,13.12
2024-03-04T17:47:21.876Z,13.16
2024-03-04T17:49:49.918Z,13.12
2024-03-04T17:52:18.128Z,13.08
2024-03-04T17:54:46.215Z,13.07
2024-03-04T17:57:14.198Z,13.00
2024-03-04T17:59:42.416Z,12.90
2024-03-04T18:02:11.080Z,12.90
2024-03-04T18:04:43.410Z,12.85
2024-03-04T18:07:10.940Z,12.79
2024-03-04T18:09:38.392Z,12.64
2024-03-04T18:12:06.392Z,12.67
2024-03-04T18:14:33.747Z,12.57
2024-03-04T18:17:02.728Z,12.64
2024-03-04T18:19:30.624Z,12.43
2024-03-04T18:22:00.310Z,12.58
2024-03-04T18:24:27.996Z,12.47
2024-03-04T18:26:55.374Z,12.48
2024-03-04T18:29:22.879Z,12.48
2024-03-04T18:31:51.052Z,12.45
2024-03-04T18:34:26.050Z,12.43
2024-03-04T18:36:54.339Z,12.41
2024-03-04T18:39:21.819Z,12.35
2024-03-04T18:41:50.665Z,12.30
2024-03-04T18:44:18.058Z,12.28
2024-03-04T18:46:46.038Z,12.23
2024-03-04T18:49:15.311Z,12.09
2024-03-04T18:51:42.967Z,11.92
2024-03-04T18:54:10.388Z,11.74
2024-03-04T18:56:38.308Z,11.59
2024-03-04T18:59:05.624Z,11.50
2024-03-04T19:01:33.490Z,11.34
2024-03-04T19:04:00.916Z,11.30
2024-03-04T19:06:28.358Z,11.35
2024-03-04T19:08:55.975Z,11.13
2024-03-04T19:11:23.974Z,11.13
2024-03-04T19:13:51.701Z,11.17
2024-03-04T19:16:19.255Z,11.20
2024-03-04T19:18:46.661Z,11.19
2024-03-04T19:21:22.122Z,11.11
2024-03-04T19:23:49.943Z,11.04
2024-03-04T19:26:21.010Z,10.94
2024-03-04T19:28:49.862Z,10.83
2024-03-04T19:31:22.731Z,10.86
2024-03-04T19:33:57.174Z,10.92
2024-03-04T19:36:24.969Z,10.91
2024-03-04T19:38:52.904Z,10.89
2024-03-04T19:41:25.273Z,10.78
2024-03-04T19:43:53.401Z,10.79
2024-03-04T19:46:23.243Z,10.78
2024-03-04T19:48:52.467Z,10.65
2024-03-04T19:51:23.315Z,10.38
2024-03-04T19:53:54.520Z,10.59
2024-03-04T19:56:22.200Z,10.59
2024-03-04T19:58:49.885Z,10.48
2024-03-04T20:01:17.889Z,10.41
2024-03-04T20:03:46.077Z,10.37
2024-03-04T20:06:13.909Z,10.33
2024-03-04T20:08:42.834Z,10.33
2024-03-04T20:11:12.710Z,10.29
2024-03-04T20:13:43.312Z,10.29
2024-03-04T20:16:13.992Z,10.19
2024-03-04T20:18:42.321Z,10.25
2024-03-04T20:21:12.943Z,10.21
2024-03-04T20:23:42.149Z,9.98
2024-03-04T20:26:09.819Z,9.89
2024-03-04T20:28:38.045Z,9.62
2024-03-04T20:31:05.954Z,9.50
2024-03-04T20:33:34.493Z,9.62
2024-03-04T20:36:02.567Z,9.15
2024-03-04T20:38:30.273Z,9.52
2024-03-04T20:40:58.530Z,9.65
2024-03-04T20:43:26.335Z,9.72
2024-03-04T20:45:53.732Z,9.77
2024-03-04T20:48:22.718Z,9.79
2024-03-04T20:50:50.088Z,9.82
2024-03-04T20:53:17.714Z,9.85
2024-03-04T20:55:45.413Z,9.89
2024-03-04T20:58:12.986Z,9.88
2024-03-04T21:00:40.980Z,9.90
2024-03-04T21:03:08.575Z,9.95
2024-03-04T21:05:37.575Z,9.93
2024-03-04T21:08:07.138Z,10.00
2024-03-04T21:10:34.691Z,9.99
2024-03-04T21:13:02.428Z,10.03
2024-03-04T21:15:30.061Z,9.92
2024-03-04T21:17:58.979Z,9.88
2024-03-04T21:20:27.814Z,9.94
2024-03-04T21:22:56.195Z,9.85
2024-03-04T21:25:23.966Z,9.89
2024-03-04T21:27:53.964Z,9.91
2024-03-04T21:30:22.942Z,9.80
2024-03-04T21:32:50.928Z,9.46
2024-03-04T21:35:18.516Z,9.37
2024-03-04T21:37:47.013Z,9.43
2024-03-04T21:40:15.316Z,9.42
2024-03-04T21:42:46.142Z,9.25
2024-03-04T21:45:14.110Z,8.92
2024-03-04T21:47:44.278Z,8.78
2024-03-04T21:50:12.451Z,8.75
2024-03-04T21:55:27.565Z,8.57
2024-03-04T21:57:54.972Z,8.48
2024-03-04T22:00:24.013Z,8.61
2024-03-04T22:02:51.855Z,8.71
2024-03-04T22:05:19.462Z,8.64
2024-03-04T22:07:48.833Z,8.67
2024-03-04T22:10:16.415Z,8.71
2024-03-04T22:12:44.242Z,8.63
2024-03-04T22:15:11.821Z,8.70
2024-03-04T22:17:41.346Z,8.75
2024-03-04T22:20:14.137Z,8.81
2024-03-04T22:22:42.303Z,8.82
2024-03-04T22:25:10.784Z,8.88
2024-03-04T22:27:38.416Z,8.89
2024-03-04T22:30:06.284Z,8.91
2024-03-04T22:32:33.729Z,8.80
2024-03-04T22:35:02.042Z,8.95
2024-03-04T22:37:30.574Z,8.97
2024-03-04T22:39:57.839Z,8.95
2024-03-04T22:42:25.562Z,9.00
2024-03-04T22:44:53.168Z,8.99
2024-03-04T22:47:22.567Z,8.95
2024-03-04T22:49:53.393Z,8.83
2024-03-04T22:52:25.027Z,8.88
2024-03-04T22:54:52.184Z,8.91
2024-03-04T22:57:19.441Z,8.90
2024-03-04T22:59:46.830Z,8.84
2024-03-04T23:02:14.609Z,8.85
2024-03-04T23:04:42.466Z,8.83
2024-03-04T23:07:10.233Z,8.85
2024-03-04T23:09:39.514Z,8.85
2024-03-04T23:12:10.382Z,8.79
2024-03-04T23:14:40.883Z,8.78
2024-03-04T23:17:08.092Z,8.68
2024-03-04T23:19:36.031Z,8.72
2024-03-04T23:22:03.812Z,8.69
2024-03-04T23:24:31.309Z,8.69
2024-03-04T23:26:58.869Z,8.56
2024-03-04T23:29:26.567Z,8.66
2024-03-04T23:31:54.213Z,8.70
2024-03-04T23:34:23.113Z,8.71
2024-03-04T23:36:54.036Z,8.68
2024-03-04T23:39:24.602Z,8.70
2024-03-04T23:41:52.436Z,8.69
2024-03-04T23:44:21.172Z,8.68
2024-03-04T23:46:49.127Z,8.63
2024-03-04T23:49:16.590Z,8.68
2024-03-04T23:51:44.091Z,8.66
2024-03-04T23:54:11.372Z,8.68
2024-03-04T23:56:42.940Z,8.69
2024-03-04T23:59:10.641Z,8.71
